sensor_id;sensor_type;location;lat;lon;timestamp;pressure;altitude;pressure_sealevel;temperature;humidity
38806;BME280;25635;51.146;17.162;2023-05-25T00:02:16;100732.74;;;8.46;83.59
38806;BME280;25635;51.146;17.162;2023-05-25T00:04:44;100730.46;;;8.44;83.64
38806;BME280;25635;51.146;17.162;2023-05-25T00:07:13;100735.13;;;8.43;83.87
38806;BME280;25635;51.146;17.162;2023-05-25T00:09:41;100732.84;;;8.41;83.84
38806;BME280;25635;51.146;17.162;2023-05-25T00:12:13;100731.93;;;8.38;84.02
38806;BME280;25635;51.146;17.162;2023-05-25T00:14:39;100732.44;;;8.35;84.22
38806;BME280;25635;51.146;17.162;2023-05-25T00:17:06;100732.21;;;8.31;84.60
38806;BME280;25635;51.146;17.162;2023-05-25T00:19:36;100733.38;;;8.26;84.99
38806;BME280;25635;51.146;17.162;2023-05-25T00:22:03;100726.38;;;8.22;85.04
38806;BME280;25635;51.146;17.162;2023-05-25T00:24:30;100725.50;;;8.21;85.03
38806;BME280;25635;51.146;17.162;2023-05-25T00:26:57;100725.36;;;8.23;85.55
38806;BME280;25635;51.146;17.162;2023-05-25T00:29:24;100725.38;;;8.24;85.31
38806;BME280;25635;51.146;17.162;2023-05-25T00:31:52;100726.08;;;8.25;85.29
38806;BME280;25635;51.146;17.162;2023-05-25T00:34:19;100722.45;;;8.27;85.47
38806;BME280;25635;51.146;17.162;2023-05-25T00:36:46;100721.75;;;8.27;85.31
38806;BME280;25635;51.146;17.162;2023-05-25T00:39:19;100725.77;;;8.28;85.31
38806;BME280;25635;51.146;17.162;2023-05-25T00:41:47;100731.14;;;8.28;85.28
38806;BME280;25635;51.146;17.162;2023-05-25T00:44:15;100730.76;;;8.25;85.56
38806;BME280;25635;51.146;17.162;2023-05-25T00:46:49;100731.94;;;8.22;85.44
38806;BME280;25635;51.146;17.162;2023-05-25T00:49:18;100734.70;;;8.20;85.61
38806;BME280;25635;51.146;17.162;2023-05-25T00:51:45;100738.52;;;8.18;85.58
38806;BME280;25635;51.146;17.162;2023-05-25T00:54:13;100735.91;;;8.19;85.89
38806;BME280;25635;51.146;17.162;2023-05-25T00:56:45;100734.86;;;8.18;85.62
38806;BME280;25635;51.146;17.162;2023-05-25T00:59:30;100735.02;;;8.17;85.50
38806;BME280;25635;51.146;17.162;2023-05-25T01:02:07;100733.11;;;8.18;85.62
38806;BME280;25635;51.146;17.162;2023-05-25T01:04:37;100732.08;;;8.18;85.65
38806;BME280;25635;51.146;17.162;2023-05-25T01:07:07;100733.80;;;8.17;85.56
38806;BME280;25635;51.146;17.162;2023-05-25T01:09:37;100734.31;;;8.16;85.89
38806;BME280;25635;51.146;17.162;2023-05-25T01:12:05;100734.45;;;8.12;85.97
38806;BME280;25635;51.146;17.162;2023-05-25T01:14:33;100738.94;;;8.09;85.93
38806;BME280;25635;51.146;17.162;2023-05-25T01:17:00;100741.34;;;8.06;85.71
38806;BME280;25635;51.146;17.162;2023-05-25T01:19:28;100742.71;;;8.05;85.77
38806;BME280;25635;51.146;17.162;2023-05-25T01:22:07;100743.58;;;8.05;85.60
38806;BME280;25635;51.146;17.162;2023-05-25T01:24:57;100741.83;;;8.04;85.36
38806;BME280;25635;51.146;17.162;2023-05-25T01:27:29;100742.17;;;8.03;85.38
38806;BME280;25635;51.146;17.162;2023-05-25T01:29:58;100745.61;;;8.01;86.24
38806;BME280;25635;51.146;17.162;2023-05-25T01:32:25;100751.64;;;7.95;86.76
38806;BME280;25635;51.146;17.162;2023-05-25T01:34:54;100753.83;;;7.90;85.99
38806;BME280;25635;51.146;17.162;2023-05-25T01:37:22;100757.26;;;7.86;85.71
38806;BME280;25635;51.146;17.162;2023-05-25T01:39:50;100761.21;;;7.83;86.16
38806;BME280;25635;51.146;17.162;2023-05-25T01:42:16;100765.50;;;7.80;85.97
38806;BME280;25635;51.146;17.162;2023-05-25T01:44:43;100766.89;;;7.79;85.86
38806;BME280;25635;51.146;17.162;2023-05-25T01:47:21;100768.29;;;7.79;85.92
38806;BME280;25635;51.146;17.162;2023-05-25T01:50:01;100766.90;;;7.79;85.70
38806;BME280;25635;51.146;17.162;2023-05-25T01:52:35;100763.77;;;7.78;85.69
38806;BME280;25635;51.146;17.162;2023-05-25T01:55:07;100760.08;;;7.76;86.01
38806;BME280;25635;51.146;17.162;2023-05-25T01:57:35;100760.38;;;7.72;86.39
38806;BME280;25635;51.146;17.162;2023-05-25T02:00:04;100757.90;;;7.68;86.73
38806;BME280;25635;51.146;17.162;2023-05-25T02:02:32;100754.23;;;7.66;86.75
38806;BME280;25635;51.146;17.162;2023-05-25T02:04:59;100754.73;;;7.65;87.10
38806;BME280;25635;51.146;17.162;2023-05-25T02:07:26;100755.39;;;7.63;87.46
38806;BME280;25635;51.146;17.162;2023-05-25T02:09:53;100761.27;;;7.61;87.81
38806;BME280;25635;51.146;17.162;2023-05-25T02:12:19;100763.01;;;7.60;88.30
38806;BME280;25635;51.146;17.162;2023-05-25T02:14:46;100764.89;;;7.58;88.57
38806;BME280;25635;51.146;17.162;2023-05-25T02:17:14;100768.36;;;7.58;88.92
38806;BME280;25635;51.146;17.162;2023-05-25T02:19:43;100775.67;;;7.59;89.25
38806;BME280;25635;51.146;17.162;2023-05-25T02:22:10;100774.83;;;7.61;89.29
38806;BME280;25635;51.146;17.162;2023-05-25T02:24:37;100773.64;;;7.64;89.51
38806;BME280;25635;51.146;17.162;2023-05-25T02:27:05;100775.25;;;7.67;89.74
38806;BME280;25635;51.146;17.162;2023-05-25T02:29:32;100777.04;;;7.71;89.83
38806;BME280;25635;51.146;17.162;2023-05-25T02:31:58;100774.49;;;7.76;89.76
38806;BME280;25635;51.146;17.162;2023-05-25T02:34:25;100765.88;;;7.81;89.79
38806;BME280;25635;51.146;17.162;2023-05-25T02:36:52;100770.64;;;7.87;89.71
38806;BME280;25635;51.146;17.162;2023-05-25T02:39:18;100770.54;;;7.93;89.42
38806;BME280;25635;51.146;17.162;2023-05-25T02:41:45;100770.79;;;8.00;89.45
38806;BME280;25635;51.146;17.162;2023-05-25T02:44:12;100773.29;;;8.06;89.06
38806;BME280;25635;51.146;17.162;2023-05-25T02:46:38;100772.50;;;8.13;89.19
38806;BME280;25635;51.146;17.162;2023-05-25T02:49:05;100770.45;;;8.17;89.01
38806;BME280;25635;51.146;17.162;2023-05-25T02:51:32;100770.14;;;8.20;89.08
38806;BME280;25635;51.146;17.162;2023-05-25T02:53:58;100770.71;;;8.24;88.93
38806;BME280;25635;51.146;17.162;2023-05-25T02:56:25;100765.36;;;8.28;89.01
38806;BME280;25635;51.146;17.162;2023-05-25T02:58:53;100761.61;;;8.35;88.91
38806;BME280;25635;51.146;17.162;2023-05-25T03:01:19;100753.85;;;8.40;88.78
38806;BME280;25635;51.146;17.162;2023-05-25T03:03:46;100756.02;;;8.46;88.51
38806;BME280;25635;51.146;17.162;2023-05-25T03:06:17;100757.64;;;8.53;88.33
38806;BME280;25635;51.146;17.162;2023-05-25T03:08:44;100759.27;;;8.60;88.06
38806;BME280;25635;51.146;17.162;2023-05-25T03:11:11;100761.58;;;8.65;88.06
38806;BME280;25635;51.146;17.162;2023-05-25T03:13:38;100767.16;;;8.67;87.91
38806;BME280;25635;51.146;17.162;2023-05-25T03:16:04;100770.99;;;8.68;87.91
38806;BME280;25635;51.146;17.162;2023-05-25T03:18:31;100775.35;;;8.68;88.25
38806;BME280;25635;51.146;17.162;2023-05-25T03:20:58;100771.70;;;8.69;88.27
38806;BME280;25635;51.146;17.162;2023-05-25T03:23:24;100779.92;;;8.74;88.38
38806;BME280;25635;51.146;17.162;2023-05-25T03:25:51;100782.55;;;8.78;88.32
38806;BME280;25635;51.146;17.162;2023-05-25T03:28:18;100787.81;;;8.83;88.42
38806;BME280;25635;51.146;17.162;2023-05-25T03:30:45;100787.34;;;8.87;88.28
38806;BME280;25635;51.146;17.162;2023-05-25T03:33:11;100782.33;;;8.91;88.66
38806;BME280;25635;51.146;17.162;2023-05-25T03:35:40;100774.68;;;8.94;88.71
38806;BME280;25635;51.146;17.162;2023-05-25T03:38:06;100774.37;;;8.96;88.88
38806;BME280;25635;51.146;17.162;2023-05-25T03:40:33;100779.92;;;8.97;88.79
38806;BME280;25635;51.146;17.162;2023-05-25T03:43:00;100782.00;;;8.97;88.71
38806;BME280;25635;51.146;17.162;2023-05-25T03:45:27;100787.05;;;8.96;88.71
38806;BME280;25635;51.146;17.162;2023-05-25T03:47:54;100786.89;;;8.97;88.80
38806;BME280;25635;51.146;17.162;2023-05-25T03:50:20;100788.61;;;8.96;88.93
38806;BME280;25635;51.146;17.162;2023-05-25T03:52:47;100790.55;;;8.98;88.72
38806;BME280;25635;51.146;17.162;2023-05-25T03:55:14;100788.11;;;8.99;88.91
38806;BME280;25635;51.146;17.162;2023-05-25T03:57:41;100787.46;;;9.04;88.92
38806;BME280;25635;51.146;17.162;2023-05-25T04:00:08;100784.20;;;9.08;89.12
38806;BME280;25635;51.146;17.162;2023-05-25T04:02:35;100790.33;;;9.14;88.96
38806;BME280;25635;51.146;17.162;2023-05-25T04:05:02;100789.66;;;9.18;88.91
38806;BME280;25635;51.146;17.162;2023-05-25T04:07:29;100789.86;;;9.22;88.93
38806;BME280;25635;51.146;17.162;2023-05-25T04:09:56;100792.83;;;9.25;89.08
38806;BME280;25635;51.146;17.162;2023-05-25T04:12:26;100792.69;;;9.29;88.86
38806;BME280;25635;51.146;17.162;2023-05-25T04:14:52;100795.84;;;9.33;88.91
38806;BME280;25635;51.146;17.162;2023-05-25T04:17:19;100794.13;;;9.36;88.81
38806;BME280;25635;51.146;17.162;2023-05-25T04:19:51;100796.76;;;9.39;88.67
38806;BME280;25635;51.146;17.162;2023-05-25T04:22:18;100802.52;;;9.44;88.66
38806;BME280;25635;51.146;17.162;2023-05-25T04:24:45;100805.84;;;9.45;88.38
38806;BME280;25635;51.146;17.162;2023-05-25T04:27:12;100805.86;;;9.49;88.44
38806;BME280;25635;51.146;17.162;2023-05-25T04:29:42;100805.88;;;9.51;88.41
38806;BME280;25635;51.146;17.162;2023-05-25T04:32:09;100803.64;;;9.54;88.34
38806;BME280;25635;51.146;17.162;2023-05-25T04:34:36;100806.09;;;9.58;88.34
38806;BME280;25635;51.146;17.162;2023-05-25T04:37:03;100807.17;;;9.63;88.47
38806;BME280;25635;51.146;17.162;2023-05-25T04:39:31;100809.10;;;9.66;88.57
38806;BME280;25635;51.146;17.162;2023-05-25T04:41:58;100810.34;;;9.68;88.43
38806;BME280;25635;51.146;17.162;2023-05-25T04:44:26;100809.83;;;9.72;88.51
38806;BME280;25635;51.146;17.162;2023-05-25T04:46:55;100807.59;;;9.77;88.51
38806;BME280;25635;51.146;17.162;2023-05-25T04:49:22;100814.58;;;9.81;88.52
38806;BME280;25635;51.146;17.162;2023-05-25T04:51:48;100814.23;;;9.83;88.26
38806;BME280;25635;51.146;17.162;2023-05-25T04:54:15;100816.00;;;9.88;88.09
38806;BME280;25635;51.146;17.162;2023-05-25T04:56:42;100817.59;;;9.92;88.16
38806;BME280;25635;51.146;17.162;2023-05-25T04:59:09;100816.57;;;9.96;88.05
38806;BME280;25635;51.146;17.162;2023-05-25T05:01:36;100819.36;;;10.00;88.20
38806;BME280;25635;51.146;17.162;2023-05-25T05:04:06;100816.57;;;9.99;87.93
38806;BME280;25635;51.146;17.162;2023-05-25T05:06:34;100817.11;;;10.01;88.09
38806;BME280;25635;51.146;17.162;2023-05-25T05:09:02;100817.80;;;10.03;87.83
38806;BME280;25635;51.146;17.162;2023-05-25T05:11:29;100824.62;;;10.06;87.71
38806;BME280;25635;51.146;17.162;2023-05-25T05:13:56;100823.06;;;10.09;87.78
38806;BME280;25635;51.146;17.162;2023-05-25T05:16:23;100821.15;;;10.13;87.66
38806;BME280;25635;51.146;17.162;2023-05-25T05:18:50;100825.19;;;10.18;87.71
38806;BME280;25635;51.146;17.162;2023-05-25T05:21:16;100826.77;;;10.21;87.53
38806;BME280;25635;51.146;17.162;2023-05-25T05:23:43;100828.86;;;10.24;87.28
38806;BME280;25635;51.146;17.162;2023-05-25T05:26:10;100833.93;;;10.26;87.19
38806;BME280;25635;51.146;17.162;2023-05-25T05:28:37;100841.64;;;10.30;86.94
38806;BME280;25635;51.146;17.162;2023-05-25T05:31:03;100840.08;;;10.31;86.95
38806;BME280;25635;51.146;17.162;2023-05-25T05:33:30;100841.30;;;10.33;87.02
38806;BME280;25635;51.146;17.162;2023-05-25T05:35:56;100840.27;;;10.37;87.05
38806;BME280;25635;51.146;17.162;2023-05-25T05:38:23;100836.98;;;10.41;86.98
38806;BME280;25635;51.146;17.162;2023-05-25T05:40:50;100840.64;;;10.44;86.79
38806;BME280;25635;51.146;17.162;2023-05-25T05:43:16;100841.00;;;10.46;86.80
38806;BME280;25635;51.146;17.162;2023-05-25T05:45:43;100844.67;;;10.50;86.69
38806;BME280;25635;51.146;17.162;2023-05-25T05:48:10;100843.98;;;10.54;86.47
38806;BME280;25635;51.146;17.162;2023-05-25T05:50:37;100846.08;;;10.58;86.34
38806;BME280;25635;51.146;17.162;2023-05-25T05:53:05;100846.09;;;10.63;86.47
38806;BME280;25635;51.146;17.162;2023-05-25T05:55:32;100844.36;;;10.66;86.30
38806;BME280;25635;51.146;17.162;2023-05-25T05:57:59;100844.54;;;10.69;86.41
38806;BME280;25635;51.146;17.162;2023-05-25T06:00:26;100850.64;;;10.72;86.08
38806;BME280;25635;51.146;17.162;2023-05-25T06:02:52;100851.88;;;10.75;86.11
38806;BME280;25635;51.146;17.162;2023-05-25T06:05:19;100851.52;;;10.78;86.16
38806;BME280;25635;51.146;17.162;2023-05-25T06:07:46;100855.89;;;10.84;86.21
38806;BME280;25635;51.146;17.162;2023-05-25T06:10:13;100853.98;;;10.87;85.90
38806;BME280;25635;51.146;17.162;2023-05-25T06:12:40;100857.30;;;10.91;85.89
38806;BME280;25635;51.146;17.162;2023-05-25T06:15:07;100855.73;;;10.96;85.79
38806;BME280;25635;51.146;17.162;2023-05-25T06:17:34;100861.16;;;11.02;85.67
38806;BME280;25635;51.146;17.162;2023-05-25T06:20:02;100862.20;;;11.06;85.71
38806;BME280;25635;51.146;17.162;2023-05-25T06:22:29;100863.08;;;11.10;85.47
38806;BME280;25635;51.146;17.162;2023-05-25T06:24:55;100862.73;;;11.13;85.42
38806;BME280;25635;51.146;17.162;2023-05-25T06:27:22;100863.60;;;11.17;85.25
38806;BME280;25635;51.146;17.162;2023-05-25T06:29:49;100859.41;;;11.20;85.48
38806;BME280;25635;51.146;17.162;2023-05-25T06:32:15;100860.98;;;11.28;85.55
38806;BME280;25635;51.146;17.162;2023-05-25T06:34:42;100857.13;;;11.31;85.17
38806;BME280;25635;51.146;17.162;2023-05-25T06:37:08;100861.67;;;11.34;85.20
38806;BME280;25635;51.146;17.162;2023-05-25T06:39:35;100856.42;;;11.41;85.20
38806;BME280;25635;51.146;17.162;2023-05-25T06:42:02;100850.50;;;11.48;85.10
38806;BME280;25635;51.146;17.162;2023-05-25T06:44:29;100853.80;;;11.52;84.95
38806;BME280;25635;51.146;17.162;2023-05-25T06:46:56;100855.54;;;11.57;85.03
38806;BME280;25635;51.146;17.162;2023-05-25T06:49:22;100856.39;;;11.63;84.95
38806;BME280;25635;51.146;17.162;2023-05-25T06:51:49;100854.81;;;11.70;84.95
38806;BME280;25635;51.146;17.162;2023-05-25T06:54:16;100854.98;;;11.76;84.77
38806;BME280;25635;51.146;17.162;2023-05-25T06:56:44;100858.11;;;11.82;84.43
38806;BME280;25635;51.146;17.162;2023-05-25T06:59:11;100855.14;;;11.89;84.44
38806;BME280;25635;51.146;17.162;2023-05-25T07:01:38;100854.42;;;11.97;84.23
38806;BME280;25635;51.146;17.162;2023-05-25T07:04:05;100853.52;;;12.08;84.46
38806;BME280;25635;51.146;17.162;2023-05-25T07:06:32;100855.56;;;12.20;84.48
38806;BME280;25635;51.146;17.162;2023-05-25T07:08:58;100852.55;;;12.28;84.08
38806;BME280;25635;51.146;17.162;2023-05-25T07:11:25;100854.43;;;12.37;84.23
38806;BME280;25635;51.146;17.162;2023-05-25T07:13:53;100851.41;;;12.47;84.04
38806;BME280;25635;51.146;17.162;2023-05-25T07:16:20;100851.71;;;12.56;84.01
38806;BME280;25635;51.146;17.162;2023-05-25T07:18:46;100850.77;;;12.70;83.80
38806;BME280;25635;51.146;17.162;2023-05-25T07:21:13;100847.38;;;12.78;83.23
38806;BME280;25635;51.146;17.162;2023-05-25T07:23:40;100848.17;;;12.88;83.24
38806;BME280;25635;51.146;17.162;2023-05-25T07:26:07;100846.88;;;12.98;82.86
38806;BME280;25635;51.146;17.162;2023-05-25T07:28:33;100851.55;;;13.07;82.81
38806;BME280;25635;51.146;17.162;2023-05-25T07:31:00;100847.97;;;13.16;82.63
38806;BME280;25635;51.146;17.162;2023-05-25T07:33:27;100847.71;;;13.25;82.12
38806;BME280;25635;51.146;17.162;2023-05-25T07:35:53;100855.59;;;13.29;81.37
38806;BME280;25635;51.146;17.162;2023-05-25T07:38:20;100860.65;;;13.32;81.14
38806;BME280;25635;51.146;17.162;2023-05-25T07:40:47;100861.45;;;13.40;81.45
38806;BME280;25635;51.146;17.162;2023-05-25T07:43:14;100860.98;;;13.52;81.58
38806;BME280;25635;51.146;17.162;2023-05-25T07:45:41;100862.97;;;13.65;81.42
38806;BME280;25635;51.146;17.162;2023-05-25T07:48:08;100861.05;;;13.79;81.48
38806;BME280;25635;51.146;17.162;2023-05-25T07:50:35;100860.40;;;13.93;81.17
38806;BME280;25635;51.146;17.162;2023-05-25T07:53:01;100863.08;;;14.03;80.60
38806;BME280;25635;51.146;17.162;2023-05-25T07:55:28;100863.29;;;14.15;80.43
38806;BME280;25635;51.146;17.162;2023-05-25T07:57:55;100869.29;;;14.26;80.15
38806;BME280;25635;51.146;17.162;2023-05-25T08:00:21;100873.73;;;14.36;79.55
38806;BME280;25635;51.146;17.162;2023-05-25T08:02:48;100873.27;;;14.45;79.01
38806;BME280;25635;51.146;17.162;2023-05-25T08:05:15;100881.23;;;14.52;78.83
38806;BME280;25635;51.146;17.162;2023-05-25T08:07:43;100882.42;;;14.57;78.16
38806;BME280;25635;51.146;17.162;2023-05-25T08:10:10;100884.13;;;14.61;77.74
38806;BME280;25635;51.146;17.162;2023-05-25T08:12:37;100880.82;;;14.60;77.37
38806;BME280;25635;51.146;17.162;2023-05-25T08:15:04;100876.34;;;14.66;78.17
38806;BME280;25635;51.146;17.162;2023-05-25T08:17:31;100877.21;;;14.78;78.21
38806;BME280;25635;51.146;17.162;2023-05-25T08:19:57;100875.30;;;14.89;77.54
38806;BME280;25635;51.146;17.162;2023-05-25T08:22:24;100876.41;;;14.96;77.35
38806;BME280;25635;51.146;17.162;2023-05-25T08:24:51;100877.53;;;15.04;77.03
38806;BME280;25635;51.146;17.162;2023-05-25T08:27:17;100878.64;;;15.12;77.43
38806;BME280;25635;51.146;17.162;2023-05-25T08:29:44;100879.56;;;15.20;76.64
38806;BME280;25635;51.146;17.162;2023-05-25T08:32:11;100875.77;;;15.26;76.56
38806;BME280;25635;51.146;17.162;2023-05-25T08:34:38;100876.11;;;15.38;76.64
38806;BME280;25635;51.146;17.162;2023-05-25T08:37:05;100876.98;;;15.49;76.28
38806;BME280;25635;51.146;17.162;2023-05-25T08:39:32;100876.02;;;15.53;75.68
38806;BME280;25635;51.146;17.162;2023-05-25T08:41:58;100876.05;;;15.61;75.56
38806;BME280;25635;51.146;17.162;2023-05-25T08:44:26;100870.15;;;15.67;75.35
38806;BME280;25635;51.146;17.162;2023-05-25T08:46:55;100870.02;;;15.76;75.43
38806;BME280;25635;51.146;17.162;2023-05-25T08:49:22;100870.63;;;15.80;74.63
38806;BME280;25635;51.146;17.162;2023-05-25T08:51:51;100876.14;;;15.87;74.75
38806;BME280;25635;51.146;17.162;2023-05-25T08:54:28;100880.21;;;15.94;74.78
38806;BME280;25635;51.146;17.162;2023-05-25T08:57:03;100882.48;;;16.05;74.43
38806;BME280;25635;51.146;17.162;2023-05-25T09:04:37;100890.95;;;16.37;73.98
38806;BME280;25635;51.146;17.162;2023-05-25T09:07:05;100890.10;;;16.46;73.53
38806;BME280;25635;51.146;17.162;2023-05-25T09:09:32;100891.71;;;16.52;72.93
38806;BME280;25635;51.146;17.162;2023-05-25T09:12:02;100893.34;;;16.58;72.83
38806;BME280;25635;51.146;17.162;2023-05-25T09:14:30;100891.40;;;16.67;72.40
38806;BME280;25635;51.146;17.162;2023-05-25T09:16:57;100893.50;;;16.74;72.59
38806;BME280;25635;51.146;17.162;2023-05-25T09:19:24;100896.84;;;16.84;72.30
38806;BME280;25635;51.146;17.162;2023-05-25T09:21:51;100894.92;;;16.91;71.68
38806;BME280;25635;51.146;17.162;2023-05-25T09:24:18;100897.11;;;16.95;71.41
38806;BME280;25635;51.146;17.162;2023-05-25T09:26:44;100895.91;;;17.02;71.21
38806;BME280;25635;51.146;17.162;2023-05-25T09:29:14;100896.30;;;17.15;71.34
38806;BME280;25635;51.146;17.162;2023-05-25T09:31:42;100895.55;;;17.31;71.05
38806;BME280;25635;51.146;17.162;2023-05-25T09:34:12;100892.21;;;17.44;70.87
38806;BME280;25635;51.146;17.162;2023-05-25T09:36:40;100883.02;;;17.59;70.74
38806;BME280;25635;51.146;17.162;2023-05-25T09:39:11;100879.80;;;17.75;69.72
38806;BME280;25635;51.146;17.162;2023-05-25T09:41:42;100881.66;;;17.91;70.21
38806;BME280;25635;51.146;17.162;2023-05-25T09:44:09;100882.47;;;18.13;70.27
38806;BME280;25635;51.146;17.162;2023-05-25T09:46:36;100885.41;;;18.34;69.66
38806;BME280;25635;51.146;17.162;2023-05-25T09:49:06;100882.02;;;18.53;68.99
38806;BME280;25635;51.146;17.162;2023-05-25T09:51:34;100885.31;;;18.72;68.36
38806;BME280;25635;51.146;17.162;2023-05-25T09:54:03;100885.08;;;18.87;66.81
38806;BME280;25635;51.146;17.162;2023-05-25T09:56:31;100883.54;;;19.02;66.80
38806;BME280;25635;51.146;17.162;2023-05-25T09:58:59;100879.23;;;19.04;63.31
38806;BME280;25635;51.146;17.162;2023-05-25T10:01:26;100878.55;;;19.08;66.20
38806;BME280;25635;51.146;17.162;2023-05-25T10:03:54;100881.50;;;19.42;66.81
38806;BME280;25635;51.146;17.162;2023-05-25T10:06:25;100878.54;;;19.72;65.88
38806;BME280;25635;51.146;17.162;2023-05-25T10:08:56;100883.36;;;20.01;65.10
38806;BME280;25635;51.146;17.162;2023-05-25T10:11:24;100884.08;;;20.30;64.49
38806;BME280;25635;51.146;17.162;2023-05-25T10:13:53;100882.03;;;20.56;63.99
38806;BME280;25635;51.146;17.162;2023-05-25T10:16:25;100884.89;;;20.79;62.58
38806;BME280;25635;51.146;17.162;2023-05-25T10:19:03;100881.77;;;20.95;61.91
38806;BME280;25635;51.146;17.162;2023-05-25T10:21:32;100885.33;;;20.99;61.75
38806;BME280;25635;51.146;17.162;2023-05-25T10:24:05;100887.63;;;21.03;60.95
38806;BME280;25635;51.146;17.162;2023-05-25T10:26:39;100887.13;;;21.07;61.72
38806;BME280;25635;51.146;17.162;2023-05-25T10:29:06;100890.73;;;21.14;60.89
38806;BME280;25635;51.146;17.162;2023-05-25T10:31:34;100892.17;;;21.22;61.09
38806;BME280;25635;51.146;17.162;2023-05-25T10:34:03;100888.77;;;21.31;60.94
38806;BME280;25635;51.146;17.162;2023-05-25T10:36:30;100890.54;;;21.40;60.68
38806;BME280;25635;51.146;17.162;2023-05-25T10:38:59;100888.58;;;21.50;59.20
38806;BME280;25635;51.146;17.162;2023-05-25T10:41:27;100886.27;;;21.46;59.56
38806;BME280;25635;51.146;17.162;2023-05-25T10:43:54;100890.25;;;21.52;59.27
38806;BME280;25635;51.146;17.162;2023-05-25T10:46:21;100886.81;;;21.50;58.08
38806;BME280;25635;51.146;17.162;2023-05-25T10:48:49;100883.92;;;21.42;58.29
38806;BME280;25635;51.146;17.162;2023-05-25T10:51:20;100882.15;;;21.41;59.58
38806;BME280;25635;51.146;17.162;2023-05-25T10:53:58;100880.92;;;21.46;59.32
38806;BME280;25635;51.146;17.162;2023-05-25T10:56:25;100880.82;;;21.53;59.27
38806;BME280;25635;51.146;17.162;2023-05-25T10:58:52;100875.25;;;21.62;58.72
38806;BME280;25635;51.146;17.162;2023-05-25T11:01:19;100871.70;;;21.67;58.14
38806;BME280;25635;51.146;17.162;2023-05-25T11:03:47;100872.05;;;21.79;58.02
38806;BME280;25635;51.146;17.162;2023-05-25T11:06:16;100873.22;;;21.80;56.80
38806;BME280;25635;51.146;17.162;2023-05-25T11:11:17;100868.58;;;21.81;57.69
38806;BME280;25635;51.146;17.162;2023-05-25T11:13:45;100868.58;;;21.89;57.69
38806;BME280;25635;51.146;17.162;2023-05-25T11:16:20;100864.30;;;21.94;57.14
38806;BME280;25635;51.146;17.162;2023-05-25T11:18:58;100863.97;;;22.01;57.75
38806;BME280;25635;51.146;17.162;2023-05-25T11:24:10;100860.96;;;22.01;57.12
38806;BME280;25635;51.146;17.162;2023-05-25T11:26:51;100856.31;;;22.05;56.23
38806;BME280;25635;51.146;17.162;2023-05-25T11:29:19;100855.77;;;22.10;56.65
38806;BME280;25635;51.146;17.162;2023-05-25T11:31:54;100857.36;;;22.18;56.65
38806;BME280;25635;51.146;17.162;2023-05-25T11:34:23;100852.48;;;22.24;55.97
38806;BME280;25635;51.146;17.162;2023-05-25T11:36:55;100855.94;;;22.26;55.74
38806;BME280;25635;51.146;17.162;2023-05-25T11:39:23;100855.86;;;22.28;55.27
38806;BME280;25635;51.146;17.162;2023-05-25T11:41:54;100853.73;;;22.24;55.72
38806;BME280;25635;51.146;17.162;2023-05-25T11:44:26;100854.89;;;22.26;55.73
38806;BME280;25635;51.146;17.162;2023-05-25T11:47:00;100855.80;;;22.21;54.20
38806;BME280;25635;51.146;17.162;2023-05-25T11:49:28;100851.70;;;22.09;55.31
38806;BME280;25635;51.146;17.162;2023-05-25T11:51:58;100845.83;;;22.10;55.17
38806;BME280;25635;51.146;17.162;2023-05-25T11:54:27;100847.71;;;22.12;55.29
38806;BME280;25635;51.146;17.162;2023-05-25T11:56:55;100850.48;;;22.09;55.21
38806;BME280;25635;51.146;17.162;2023-05-25T11:59:25;100848.84;;;22.10;55.17
38806;BME280;25635;51.146;17.162;2023-05-25T12:01:59;100845.19;;;22.12;55.17
38806;BME280;25635;51.146;17.162;2023-05-25T12:04:27;100839.84;;;22.16;55.42
38806;BME280;25635;51.146;17.162;2023-05-25T12:09:28;100841.55;;;22.10;54.05
38806;BME280;25635;51.146;17.162;2023-05-25T12:11:55;100842.09;;;22.06;54.94
38806;BME280;25635;51.146;17.162;2023-05-25T12:14:22;100837.94;;;22.11;55.11
38806;BME280;25635;51.146;17.162;2023-05-25T12:16:50;100840.27;;;22.18;54.75
38806;BME280;25635;51.146;17.162;2023-05-25T12:19:17;100840.27;;;22.18;54.70
38806;BME280;25635;51.146;17.162;2023-05-25T12:21:44;100837.67;;;22.21;55.10
38806;BME280;25635;51.146;17.162;2023-05-25T12:24:11;100832.91;;;22.25;54.23
38806;BME280;25635;51.146;17.162;2023-05-25T12:26:49;100832.63;;;22.27;54.60
38806;BME280;25635;51.146;17.162;2023-05-25T12:29:16;100830.45;;;22.32;53.84
38806;BME280;25635;51.146;17.162;2023-05-25T12:31:43;100830.12;;;22.32;53.39
38806;BME280;25635;51.146;17.162;2023-05-25T12:34:15;100824.67;;;22.30;54.12
38806;BME280;25635;51.146;17.162;2023-05-25T12:36:43;100824.55;;;22.33;53.29
38806;BME280;25635;51.146;17.162;2023-05-25T12:39:12;100824.50;;;22.26;53.19
38806;BME280;25635;51.146;17.162;2023-05-25T12:41:50;100823.27;;;22.22;53.81
38806;BME280;25635;51.146;17.162;2023-05-25T12:46:55;100818.77;;;22.15;52.95
38806;BME280;25635;51.146;17.162;2023-05-25T12:51:54;100817.34;;;22.00;53.84
38806;BME280;25635;51.146;17.162;2023-05-25T12:54:41;100817.57;;;22.02;53.78
38806;BME280;25635;51.146;17.162;2023-05-25T12:57:16;100815.42;;;21.99;53.90
38806;BME280;25635;51.146;17.162;2023-05-25T12:59:44;100813.58;;;22.01;53.87
38806;BME280;25635;51.146;17.162;2023-05-25T13:02:13;100814.03;;;21.94;52.77
38806;BME280;25635;51.146;17.162;2023-05-25T13:04:41;100811.03;;;21.82;53.00
38806;BME280;25635;51.146;17.162;2023-05-25T13:07:08;100807.45;;;21.76;53.52